createdAt,value
2022-08-07T00:00:42.507Z,6.7
2022-08-07T00:02:36.164Z,6.8
2022-08-07T00:02:44.540Z,6.9
2022-08-07T00:03:47.411Z,6.7
2022-08-07T00:04:42.590Z,6.8
2022-08-07T00:05:42.505Z,6.8
2022-08-07T00:06:51.732Z,6.7
2022-08-07T00:07:42.506Z,6.8
2022-08-07T00:08:44.377Z,6.8
2022-08-07T00:09:50.182Z,6.7
2022-08-07T00:10:47.620Z,6.8
2022-08-07T00:11:48.094Z,6.8
2022-08-07T00:12:57.614Z,6.8
2022-08-07T00:13:44.806Z,6.8
2022-08-07T00:14:44.188Z,6.8
2022-08-07T00:15:46.309Z,6.8
2022-08-07T00:16:42.495Z,6.8
2022-08-07T00:17:42.511Z,6.8
2022-08-07T00:18:42.505Z,6.8
2022-08-07T00:20:01.491Z,6.8
2022-08-07T00:20:42.509Z,6.8
2022-08-07T00:21:56.041Z,6.8
2022-08-07T00:22:42.505Z,6.8
2022-08-07T00:23:42.518Z,6.8
2022-08-07T00:24:42.516Z,6.8
2022-08-07T00:25:42.511Z,6.8
2022-08-07T00:26:59.358Z,6.8
2022-08-07T00:27:52.580Z,6.8
2022-08-07T00:28:46.170Z,6.8
2022-08-07T00:29:42.522Z,6.9
2022-08-07T00:30:42.500Z,6.9
2022-08-07T00:31:42.709Z,6.9
2022-08-07T00:32:42.519Z,6.8
2022-08-07T00:33:42.515Z,6.9
2022-08-07T00:34:42.507Z,6.9
2022-08-07T00:35:46.502Z,6.8
2022-08-07T00:36:43.018Z,6.9
2022-08-07T00:37:48.366Z,6.9
2022-08-07T00:38:42.531Z,6.8
2022-08-07T00:39:45.196Z,6.8
2022-08-07T00:40:42.506Z,6.7
2022-08-07T00:41:45.318Z,6.7
2022-08-07T00:42:42.505Z,6.7
2022-08-07T00:43:59.195Z,6.7
2022-08-07T00:44:42.502Z,7
2022-08-07T00:45:42.542Z,7
2022-08-07T00:46:42.528Z,6.9
2022-08-07T00:48:09.912Z,6.8
2022-08-07T00:48:42.645Z,6.8
2022-08-07T00:50:20.194Z,6.8
2022-08-07T00:50:50.269Z,6.7
2022-08-07T00:51:56.803Z,6.7
2022-08-07T00:52:42.509Z,6.7
2022-08-07T00:53:50.113Z,6.8
2022-08-07T00:54:42.517Z,6.8
2022-08-07T00:56:00.431Z,6.7
2022-08-07T00:56:42.525Z,6.7
2022-08-07T00:57:44.518Z,6.7
2022-08-07T00:58:42.527Z,6.7
2022-08-07T00:59:42.507Z,6.7
2022-08-07T01:00:53.929Z,6.7
2022-08-07T01:01:44.505Z,6.7
2022-08-07T01:02:42.595Z,6.7
2022-08-07T01:03:56.150Z,6.7
2022-08-07T01:04:43.499Z,6.8
2022-08-07T01:05:42.517Z,6.7
2022-08-07T01:06:42.598Z,6.7
2022-08-07T01:07:42.500Z,6.7
2022-08-07T01:08:51.278Z,6.7
2022-08-07T01:10:04.433Z,6.7
2022-08-07T01:10:47.680Z,6.7
2022-08-07T01:12:53.328Z,6.7
2022-08-07T01:13:56.053Z,6.7
2022-08-07T01:14:57.165Z,6.7
2022-08-07T01:16:04.948Z,6.7
2022-08-07T01:16:52.811Z,6.7
2022-08-07T01:17:42.557Z,6.7
2022-08-07T01:18:42.515Z,6.7
2022-08-07T01:19:44.380Z,6.7
2022-08-07T01:20:43.070Z,6.6
2022-08-07T01:21:42.509Z,6.7
2022-08-07T01:22:54.027Z,6.6
2022-08-07T01:23:45.007Z,6.7
2022-08-07T01:24:42.526Z,6.7
2022-08-07T01:25:55.400Z,6.6
2022-08-07T01:26:42.523Z,6.7
2022-08-07T01:27:51.499Z,6.7
2022-08-07T01:28:46.370Z,6.7
2022-08-07T01:29:42.552Z,6.7
2022-08-07T01:30:42.504Z,6.7
2022-08-07T01:31:48.196Z,6.7
2022-08-07T01:32:42.509Z,6.7
2022-08-07T01:33:53.509Z,6.7
2022-08-07T01:34:42.521Z,6.7
2022-08-07T01:35:54.366Z,6.7
2022-08-07T01:36:44.113Z,6.7
2022-08-07T01:37:42.534Z,6.7
2022-08-07T01:38:42.530Z,6.7
2022-08-07T01:39:46.976Z,6.7
2022-08-07T01:40:42.506Z,6.7
2022-08-07T01:42:07.493Z,6.7
2022-08-07T01:42:57.272Z,6.6
2022-08-07T01:43:42.533Z,6.6
2022-08-07T01:44:42.533Z,6.7
2022-08-07T01:45:42.540Z,6.6
2022-08-07T01:46:42.605Z,6.6
2022-08-07T01:48:17.626Z,6.6
2022-08-07T01:48:46.748Z,6.6
2022-08-07T01:49:42.527Z,6.6
2022-08-07T01:50:43.189Z,6.6
2022-08-07T01:52:01.939Z,6.6
2022-08-07T01:52:49.794Z,6.6
2022-08-07T01:54:08.759Z,6.7
2022-08-07T01:54:42.530Z,6.6
2022-08-07T01:55:42.525Z,6.7
2022-08-07T01:56:42.526Z,6.7
2022-08-07T01:58:01.325Z,6.7
2022-08-07T01:58:45.229Z,6.7
2022-08-07T01:59:43.795Z,6.7
2022-08-07T02:00:49.018Z,6.7
2022-08-07T02:01:59.922Z,6.7
2022-08-07T02:03:19.107Z,6.7
2022-08-07T02:03:48.708Z,6.6
2022-08-07T02:04:56.286Z,6.6
2022-08-07T02:05:47.613Z,6.7
2022-08-07T02:06:42.533Z,6.6
2022-08-07T02:07:50.134Z,6.6
2022-08-07T02:08:42.587Z,6.6
2022-08-07T02:09:52.721Z,6.6
2022-08-07T02:10:42.533Z,6.6
2022-08-07T02:12:05.047Z,6.6
2022-08-07T02:12:42.542Z,6.6
2022-08-07T02:13:57.438Z,6.7
2022-08-07T02:14:42.529Z,6.6
2022-08-07T02:15:42.551Z,6.7
2022-08-07T02:16:42.528Z,6.7
2022-08-07T02:17:42.526Z,6.7
2022-08-07T02:18:47.299Z,6.7
2022-08-07T02:20:03.990Z,6.7
2022-08-07T02:20:42.524Z,6.7
2022-08-07T02:21:55.858Z,6.6
2022-08-07T02:22:43.822Z,6.7
2022-08-07T02:23:43.205Z,6.7
2022-08-07T02:24:44.619Z,6.7
2022-08-07T02:26:26.679Z,6.7
2022-08-07T02:26:42.540Z,6.7
2022-08-07T02:27:42.528Z,6.7
2022-08-07T02:28:42.538Z,6.7
2022-08-07T02:30:42.529Z,6.7
2022-08-07T02:31:42.526Z,6.7
2022-08-07T02:33:00.752Z,6.7
2022-08-07T02:34:03.241Z,6.6
2022-08-07T02:34:48.831Z,6.6
2022-08-07T02:36:30.727Z,6.6
2022-08-07T02:36:42.534Z,6.7
2022-08-07T02:37:43.868Z,6.6
2022-08-07T02:38:50.795Z,6.6
2022-08-07T02:40:02.420Z,6.6
2022-08-07T02:40:42.579Z,6.6
2022-08-07T02:41:50.579Z,6.6
2022-08-07T02:42:42.522Z,6.6
2022-08-07T02:43:42.530Z,6.6
2022-08-07T02:44:47.904Z,6.6
2022-08-07T02:46:00.876Z,6.6
2022-08-07T02:46:46.707Z,6.6
2022-08-07T02:47:45.548Z,6.6
2022-08-07T02:48:47.182Z,6.6
2022-08-07T02:49:58.722Z,6.6
2022-08-07T02:50:42.536Z,6.6
2022-08-07T02:51:51.905Z,6.6
2022-08-07T02:52:44.078Z,6.5
2022-08-07T02:53:42.518Z,6.6
2022-08-07T02:54:42.533Z,6.6
2022-08-07T02:56:03.251Z,6.6
2022-08-07T02:56:42.558Z,6.6
2022-08-07T02:57:42.529Z,6.6
2022-08-07T02:58:47.385Z,6.6
2022-08-07T02:59:42.521Z,6.6
2022-08-07T03:00:46.990Z,6.6
2022-08-07T03:01:42.676Z,6.6
2022-08-07T03:02:55.056Z,6.7
2022-08-07T03:03:49.695Z,6.6
2022-08-07T03:04:42.540Z,6.6
2022-08-07T03:05:42.530Z,6.6
2022-08-07T03:06:44.614Z,6.6
2022-08-07T03:08:04.565Z,6.6
2022-08-07T03:08:42.540Z,6.6
2022-08-07T03:09:44.644Z,6.7
2022-08-07T03:10:46.437Z,6.7
2022-08-07T03:11:52.605Z,6.6
2022-08-07T03:12:42.541Z,6.6
2022-08-07T03:13:49.788Z,6.7
2022-08-07T03:14:42.528Z,6.6
2022-08-07T03:15:56.792Z,6.6
2022-08-07T03:16:42.540Z,6.6
2022-08-07T03:17:54.045Z,6.6
2022-08-07T03:18:44.158Z,6.7
2022-08-07T03:19:42.545Z,6.7
2022-08-07T03:20:42.538Z,6.7
2022-08-07T03:21:45.608Z,6.6
2022-08-07T03:22:42.530Z,6.6
2022-08-07T03:24:17.850Z,6.6
2022-08-07T03:24:42.549Z,6.6
2022-08-07T03:25:42.545Z,6.6
2022-08-07T03:26:51.090Z,6.6
2022-08-07T03:27:59.025Z,6.6
2022-08-07T03:28:42.861Z,6.6
2022-08-07T03:29:46.071Z,6.6
2022-08-07T03:30:42.537Z,6.6
2022-08-07T03:31:46.557Z,6.6
2022-08-07T03:32:49.011Z,6.6
2022-08-07T03:33:42.536Z,6.6
2022-08-07T03:34:47.584Z,6.6
2022-08-07T03:35:44.214Z,6.6
2022-08-07T03:36:42.528Z,6.6
2022-08-07T03:37:46.531Z,6.6
2022-08-07T03:38:42.534Z,6.7
2022-08-07T03:39:59.039Z,6.6
2022-08-07T03:40:44.363Z,6.6
2022-08-07T03:41:47.455Z,6.6
2022-08-07T03:42:42.535Z,6.6
2022-08-07T03:43:56.758Z,6.6
2022-08-07T03:44:42.575Z,6.5
2022-08-07T03:45:43.697Z,6.5
2022-08-07T03:47:13.078Z,6.5
2022-08-07T03:47:45.312Z,6.5
2022-08-07T03:48:45.479Z,6.6
2022-08-07T03:49:42.552Z,6.6
2022-08-07T03:50:43.267Z,6.6
2022-08-07T03:51:47.154Z,6.6
2022-08-07T03:54:01.952Z,6.6
2022-08-07T03:54:54.285Z,6.6
2022-08-07T03:55:57.371Z,6.6
2022-08-07T03:56:42.544Z,6.5
2022-08-07T03:58:34.773Z,6.6
2022-08-07T03:59:07.864Z,6.5
2022-08-07T03:59:46.547Z,6.5
2022-08-07T04:00:46.168Z,6.6
2022-08-07T04:01:43.296Z,6.5
2022-08-07T04:02:42.542Z,6.5
2022-08-07T04:03:53.398Z,6.5
2022-08-07T04:04:42.596Z,6.6
2022-08-07T04:05:42.653Z,6.6
2022-08-07T04:06:42.573Z,6.5
2022-08-07T04:07:45.179Z,6.5
2022-08-07T04:08:42.547Z,6.6
2022-08-07T04:09:45.057Z,6.5
2022-08-07T04:10:42.615Z,6.5
2022-08-07T04:12:26.748Z,6.5
2022-08-07T04:12:42.559Z,6.5
2022-08-07T04:14:10.327Z,6.5
2022-08-07T04:14:43.856Z,6.6
2022-08-07T04:15:42.551Z,6.6
2022-08-07T04:16:43.106Z,6.6
2022-08-07T04:18:31.022Z,6.6
2022-08-07T04:18:59.028Z,6.6
2022-08-07T04:19:51.859Z,6.6
2022-08-07T04:20:43.097Z,6.6
2022-08-07T04:21:48.088Z,6.5
2022-08-07T04:22:53.411Z,6.6
2022-08-07T04:24:01.954Z,6.5
2022-08-07T04:24:42.545Z,6.6
2022-08-07T04:25:42.531Z,6.6
2022-08-07T04:26:43.597Z,6.6
2022-08-07T04:27:44.169Z,6.6
2022-08-07T04:28:42.540Z,6.5
2022-08-07T04:29:58.312Z,6.6
2022-08-07T04:30:55.189Z,6.6
2022-08-07T04:32:03.353Z,6.6
2022-08-07T04:32:44.774Z,6.6
2022-08-07T04:33:42.551Z,6.6
2022-08-07T04:34:42.542Z,6.6
2022-08-07T04:35:42.555Z,6.6
2022-08-07T04:36:42.562Z,6.7
2022-08-07T04:38:03.939Z,6.6
2022-08-07T04:38:42.552Z,6.6
2022-08-07T04:39:47.935Z,6.7
2022-08-07T04:40:51.198Z,6.7
2022-08-07T04:41:42.548Z,6.6
2022-08-07T04:42:42.574Z,6.6
2022-08-07T04:44:12.906Z,6.6
2022-08-07T04:44:54.480Z,6.6
2022-08-07T04:45:58.057Z,6.6
2022-08-07T04:47:04.202Z,6.6
2022-08-07T04:48:01.788Z,6.6
2022-08-07T04:48:44.770Z,6.6
2022-08-07T04:49:42.555Z,6.6
2022-08-07T04:50:42.556Z,6.7
2022-08-07T04:51:42.564Z,6.7
2022-08-07T04:52:51.325Z,6.6
2022-08-07T04:54:05.703Z,6.6
2022-08-07T04:54:42.557Z,6.7
2022-08-07T04:58:10.695Z,6.7
2022-08-07T04:58:11.334Z,6.6
2022-08-07T04:58:11.441Z,6.7
2022-08-07T05:00:12.396Z,6.7
2022-08-07T05:00:42.610Z,6.7
2022-08-07T05:01:42.564Z,6.7
2022-08-07T05:02:43.733Z,6.7
2022-08-07T05:04:07.037Z,6.7
2022-08-07T05:04:43.896Z,6.8
2022-08-07T05:05:52.765Z,6.8
2022-08-07T05:06:43.625Z,6.8
2022-08-07T05:07:48.236Z,6.8
2022-08-07T05:08:59.939Z,6.8
2022-08-07T05:09:45.430Z,6.7
2022-08-07T05:10:42.554Z,6.7
2022-08-07T05:11:56.800Z,6.8
2022-08-07T05:12:46.148Z,6.8
2022-08-07T05:14:52.900Z,6.8
2022-08-07T05:14:53.824Z,6.8
2022-08-07T05:15:42.555Z,6.8
2022-08-07T05:16:45.267Z,6.8
2022-08-07T05:17:51.493Z,6.8
2022-08-07T05:18:42.551Z,6.8
2022-08-07T05:19:44.692Z,6.9
2022-08-07T05:20:42.764Z,6.8
2022-08-07T05:21:59.563Z,6.9
2022-08-07T05:22:42.565Z,6.9
2022-08-07T05:23:42.585Z,6.9
2022-08-07T05:24:42.563Z,6.9
2022-08-07T05:26:13.607Z,7
2022-08-07T05:26:42.563Z,6.9
2022-08-07T05:28:03.251Z,7
2022-08-07T05:28:46.649Z,6.9
2022-08-07T05:29:51.341Z,6.9
2022-08-07T05:30:42.552Z,7
2022-08-07T05:31:51.083Z,7
2022-08-07T05:32:42.547Z,7
2022-08-07T05:33:42.574Z,7
2022-08-07T05:34:42.570Z,7
2022-08-07T05:35:42.637Z,7
2022-08-07T05:36:42.570Z,7
2022-08-07T05:37:42.556Z,7
2022-08-07T05:39:01.140Z,7
2022-08-07T05:40:06.853Z,6.9
2022-08-07T05:40:51.348Z,6.9
2022-08-07T05:42:01.634Z,7
2022-08-07T05:42:42.568Z,7
2022-08-07T05:44:01.211Z,7
2022-08-07T05:44:52.951Z,7
2022-08-07T05:45:46.744Z,6.9
2022-08-07T05:46:42.882Z,6.9
2022-08-07T05:48:02.475Z,6.9
2022-08-07T05:48:58.444Z,6.9
2022-08-07T05:49:42.551Z,7
2022-08-07T05:50:43.249Z,7
2022-08-07T05:51:42.575Z,7
2022-08-07T05:52:42.580Z,7
2022-08-07T05:54:09.680Z,7.1
2022-08-07T05:54:44.572Z,7
2022-08-07T05:56:03.120Z,7
2022-08-07T05:56:42.568Z,7
2022-08-07T05:57:42.677Z,7.1
2022-08-07T05:58:52.405Z,7.1
2022-08-07T05:59:56.233Z,7.1
2022-08-07T06:00:42.549Z,7.1
2022-08-07T06:01:42.597Z,7.1
2022-08-07T06:02:42.602Z,7.2
2022-08-07T06:03:53.195Z,7.2
2022-08-07T06:04:42.660Z,7.2
2022-08-07T06:05:42.568Z,7.2
2022-08-07T06:06:46.146Z,7.2
2022-08-07T06:08:13.790Z,7.2
2022-08-07T06:08:42.766Z,7.2
2022-08-07T06:09:45.098Z,7.2
2022-08-07T06:10:42.635Z,7.2
2022-08-07T06:11:42.566Z,7.2
2022-08-07T06:12:42.645Z,7.3
2022-08-07T06:14:12.115Z,7.3
2022-08-07T06:14:42.598Z,7.4
2022-08-07T06:15:42.939Z,7.3
2022-08-07T06:16:42.576Z,7.3
2022-08-07T06:17:42.585Z,7.3
2022-08-07T06:18:42.993Z,7.3
2022-08-07T06:19:51.858Z,7.3
2022-08-07T06:20:49.904Z,7.3
2022-08-07T06:22:14.759Z,7.3
2022-08-07T06:23:01.795Z,7.4
2022-08-07T06:24:37.199Z,7.4
2022-08-07T06:24:52.772Z,7.4
2022-08-07T06:25:54.859Z,7.4
2022-08-07T06:26:42.567Z,7.5
2022-08-07T06:27:44.106Z,7.4
2022-08-07T06:28:42.588Z,7.5
2022-08-07T06:29:42.567Z,7.5
2022-08-07T06:30:45.825Z,7.5
2022-08-07T06:31:49.597Z,7.5
2022-08-07T06:32:42.570Z,7.5
2022-08-07T06:33:42.575Z,7.5
2022-08-07T06:34:45.292Z,7.5
2022-08-07T06:35:48.038Z,7.5
2022-08-07T06:36:42.561Z,7.5
2022-08-07T06:37:43.834Z,7.5
2022-08-07T06:38:58.374Z,7.5
2022-08-07T06:40:16.904Z,7.5
2022-08-07T06:40:46.033Z,7.5
2022-08-07T06:42:01.116Z,7.5
2022-08-07T06:42:42.587Z,7.5
2022-08-07T06:43:46.613Z,7.6
2022-08-07T06:44:42.578Z,7.5
2022-08-07T06:45:44.318Z,7.5
2022-08-07T06:46:42.558Z,7.5
2022-08-07T06:47:57.551Z,7.5
2022-08-07T06:48:44.716Z,7.5
2022-08-07T06:49:50.922Z,7.5
2022-08-07T06:50:43.315Z,7.6
2022-08-07T06:51:49.644Z,7.5
2022-08-07T06:52:42.579Z,7.6
2022-08-07T06:55:29.693Z,7.6
2022-08-07T06:55:32.352Z,7.6
2022-08-07T06:55:53.628Z,7.5
2022-08-07T06:56:48.825Z,7.5
2022-08-07T06:57:47.761Z,7.5
2022-08-07T07:00:11.911Z,7.5
2022-08-07T07:00:14.658Z,7.5
2022-08-07T07:00:42.663Z,7.5
2022-08-07T07:01:48.743Z,7.5
2022-08-07T07:02:54.313Z,7.5
2022-08-07T07:03:48.187Z,7.5
2022-08-07T07:04:43.574Z,7.5
2022-08-07T07:06:03.808Z,7.5
2022-08-07T07:07:00.228Z,7.5
2022-08-07T07:08:00.169Z,7.5
2022-08-07T07:08:46.613Z,7.5
2022-08-07T07:09:42.631Z,7.5
2022-08-07T07:10:54.730Z,7.5
2022-08-07T07:12:08.337Z,7.5
2022-08-07T07:12:48.861Z,7.4
2022-08-07T07:13:58.580Z,7.2
2022-08-07T07:14:42.575Z,7.3
2022-08-07T07:15:43.145Z,7.3
2022-08-07T07:16:50.002Z,7.3
2022-08-07T07:17:45.290Z,7.2
2022-08-07T07:18:48.146Z,7.2
2022-08-07T07:19:56.618Z,7.3
2022-08-07T07:20:42.583Z,7.3
2022-08-07T07:22:04.908Z,7.3
2022-08-07T07:22:50.960Z,7.4
2022-08-07T07:24:10.936Z,7.3
2022-08-07T07:24:43.120Z,7.3
2022-08-07T07:26:32.753Z,7.2
2022-08-07T07:26:51.927Z,7.1
2022-08-07T07:27:55.630Z,7.2
2022-08-07T07:29:38.424Z,7.3
2022-08-07T07:30:09.363Z,7.4
2022-08-07T07:30:42.584Z,7.4
2022-08-07T07:31:44.287Z,7.2
2022-08-07T07:32:42.744Z,7.5
2022-08-07T07:33:42.587Z,7.3
2022-08-07T07:34:42.581Z,7.2
2022-08-07T07:35:54.240Z,7.3
2022-08-07T07:36:42.604Z,7.3
2022-08-07T07:37:47.323Z,7.2
2022-08-07T07:38:43.425Z,7.3
2022-08-07T07:39:52.077Z,7.2
2022-08-07T07:40:42.592Z,7.4
2022-08-07T07:41:50.675Z,7.4
2022-08-07T07:42:42.597Z,7.4
2022-08-07T07:44:13.788Z,7.4
2022-08-07T07:44:42.591Z,7.3
2022-08-07T07:46:36.484Z,7.2
2022-08-07T07:46:54.199Z,7.2
2022-08-07T07:47:42.924Z,7.3
2022-08-07T07:48:42.590Z,7.4
2022-08-07T07:50:35.899Z,7.4
2022-08-07T07:50:42.591Z,7.4
2022-08-07T07:51:58.270Z,7.3
2022-08-07T07:52:42.592Z,7.4
2022-08-07T07:53:51.867Z,7.3
2022-08-07T07:54:44.176Z,7.2
2022-08-07T07:55:45.752Z,7.2
2022-08-07T07:56:42.582Z,7.2
2022-08-07T07:57:50.211Z,7.2
2022-08-07T07:58:42.601Z,7.3
2022-08-07T07:59:53.801Z,7.2
2022-08-07T08:00:42.582Z,7.2
2022-08-07T08:02:01.997Z,7.2
2022-08-07T08:03:01.150Z,7.3
2022-08-07T08:04:09.455Z,7.4
2022-08-07T08:04:42.658Z,7.5
2022-08-07T08:05:50.548Z,7.5
2022-08-07T08:06:51.997Z,7.4
2022-08-07T08:07:59.948Z,7.5
2022-08-07T08:08:42.704Z,7.6
2022-08-07T08:09:52.386Z,7.5
2022-08-07T08:10:42.590Z,7.3
2022-08-07T08:12:00.008Z,7.4
2022-08-07T08:12:59.219Z,7.4
2022-08-07T08:13:53.144Z,7.3
2022-08-07T08:14:42.611Z,7.2
2022-08-07T08:15:58.144Z,7.2
2022-08-07T08:16:42.602Z,7.4
2022-08-07T08:17:57.937Z,7.4
2022-08-07T08:18:42.598Z,7.5
2022-08-07T08:20:17.975Z,7.3
2022-08-07T08:20:43.492Z,7.4
2022-08-07T08:21:56.024Z,7.4
2022-08-07T08:22:54.162Z,7.4
2022-08-07T08:23:42.603Z,7.4
2022-08-07T08:24:45.683Z,7.4
2022-08-07T08:25:49.380Z,7.3
2022-08-07T08:26:42.602Z,7.4
2022-08-07T08:27:56.008Z,7.4
2022-08-07T08:28:44.735Z,7.5
2022-08-07T08:29:54.474Z,7.4
2022-08-07T08:30:51.162Z,7.4
2022-08-07T08:31:58.833Z,7.4
2022-08-07T08:32:42.616Z,7.4
2022-08-07T08:33:43.887Z,7.3
2022-08-07T08:34:42.672Z,7.4
2022-08-07T08:35:47.103Z,7.4
2022-08-07T08:36:42.600Z,7.3
2022-08-07T08:37:59.735Z,7.3
2022-08-07T08:38:42.606Z,7.3
2022-08-07T08:39:54.927Z,7.4
2022-08-07T08:40:43.899Z,7.3
2022-08-07T08:41:59.182Z,7.4
2022-08-07T08:42:42.609Z,7.4
2022-08-07T08:43:45.138Z,7.3
2022-08-07T08:44:44.654Z,7.4
2022-08-07T08:45:59.519Z,7.4
2022-08-07T08:46:45.023Z,7.3
2022-08-07T08:47:52.744Z,7.2
2022-08-07T08:48:42.624Z,7.2
2022-08-07T08:49:46.816Z,7.2
2022-08-07T08:50:42.614Z,7.3
2022-08-07T08:52:12.759Z,7.3
2022-08-07T08:52:53.606Z,7.3
2022-08-07T08:53:42.610Z,7.4
2022-08-07T08:54:42.610Z,7.4
2022-08-07T08:55:54.630Z,7.3
2022-08-07T08:56:47.696Z,7.4
2022-08-07T08:57:42.614Z,7.5
2022-08-07T08:58:42.636Z,7.5
2022-08-07T08:59:48.035Z,7.4
2022-08-07T09:00:42.786Z,7.3
2022-08-07T09:01:46.561Z,7.3
2022-08-07T09:02:42.687Z,7.2
2022-08-07T09:03:47.388Z,7.2
2022-08-07T09:04:42.601Z,7.2
2022-08-07T09:05:42.608Z,7.2
2022-08-07T09:06:42.787Z,7.3
2022-08-07T09:07:46.445Z,7.3
2022-08-07T09:08:42.617Z,7.4
2022-08-07T09:09:42.620Z,7.4
2022-08-07T09:10:44.264Z,7.4
2022-08-07T09:11:50.383Z,7.5
2022-08-07T09:12:42.601Z,7.3
2022-08-07T09:13:42.617Z,7.3
2022-08-07T09:14:50.552Z,7.1
2022-08-07T09:16:22.881Z,7
2022-08-07T09:16:42.641Z,6.9
2022-08-07T09:18:01.433Z,6.8
2022-08-07T09:18:42.604Z,6.8
2022-08-07T09:19:51.964Z,6.9
2022-08-07T09:20:42.617Z,6.9
2022-08-07T09:22:10.084Z,6.9
2022-08-07T09:24:31.522Z,7.1
2022-08-07T09:24:54.027Z,7.1
2022-08-07T09:24:59.037Z,7.1
2022-08-07T09:25:42.609Z,7.1
2022-08-07T09:26:47.643Z,7
2022-08-07T09:28:00.394Z,7.1
2022-08-07T09:30:01.318Z,7.2
2022-08-07T09:30:03.804Z,7.1
2022-08-07T09:30:44.202Z,7.2
2022-08-07T09:31:49.136Z,7.3
2022-08-07T09:32:42.635Z,7.3
2022-08-07T09:33:56.573Z,7.2
2022-08-07T09:34:42.609Z,7.1
2022-08-07T09:36:04.710Z,7.1
2022-08-07T09:36:43.127Z,7.2
2022-08-07T09:37:53.439Z,7.2
2022-08-07T09:38:42.633Z,7.3
2022-08-07T09:39:54.869Z,7.2
2022-08-07T09:40:42.629Z,7
2022-08-07T09:41:43.196Z,7
2022-08-07T09:42:42.628Z,7
2022-08-07T09:44:06.585Z,7
2022-08-07T09:45:03.398Z,7
2022-08-07T09:47:51.886Z,7
2022-08-07T09:47:52.710Z,7
2022-08-07T09:47:58.245Z,7.1
2022-08-07T09:48:55.873Z,7
2022-08-07T09:50:02.527Z,7.1
2022-08-07T09:50:42.632Z,7
2022-08-07T09:52:15.509Z,7.1
2022-08-07T09:52:42.617Z,7
2022-08-07T09:53:48.870Z,7.1
2022-08-07T09:54:42.616Z,7
2022-08-07T09:56:04.486Z,7.1
2022-08-07T09:56:42.641Z,7.1
2022-08-07T09:57:46.381Z,7.2
2022-08-07T09:58:42.650Z,7.3
2022-08-07T09:59:46.586Z,7.3
2022-08-07T10:00:42.698Z,7.1
2022-08-07T10:01:52.324Z,7.2
2022-08-07T10:02:53.704Z,7.1
2022-08-07T10:04:06.453Z,7
2022-08-07T10:04:46.139Z,7.1
2022-08-07T10:05:59.278Z,7.1
2022-08-07T10:06:42.636Z,7.1
2022-08-07T10:07:53.665Z,6.9
2022-08-07T10:08:42.624Z,6.9
2022-08-07T10:09:59.050Z,6.9
2022-08-07T10:12:01.104Z,6.9
2022-08-07T10:12:52.731Z,7.1
2022-08-07T10:14:00.144Z,7.3
2022-08-07T10:14:42.716Z,7.4
2022-08-07T10:15:44.281Z,7.4
2022-08-07T10:16:43.173Z,7.5
2022-08-07T10:18:00.271Z,7.5
2022-08-07T10:18:42.657Z,7.8
2022-08-07T10:19:42.638Z,7.6
2022-08-07T10:20:44.390Z,7.2
2022-08-07T10:22:14.756Z,7
2022-08-07T10:22:43.235Z,7.1
2022-08-07T10:24:05.544Z,6.9
2022-08-07T10:24:42.640Z,7
2022-08-07T10:25:43.542Z,7.2
2022-08-07T10:26:42.659Z,6.9
2022-08-07T10:27:46.507Z,7
2022-08-07T10:28:49.416Z,7.3
2022-08-07T10:29:45.642Z,7.1
2022-08-07T10:30:42.629Z,6.9
2022-08-07T10:31:45.184Z,7
2022-08-07T10:32:52.748Z,7.3
2022-08-07T10:34:05.741Z,7.1
2022-08-07T10:34:42.637Z,7.1
2022-08-07T10:35:55.229Z,7.1
2022-08-07T10:36:42.626Z,7.1
2022-08-07T10:38:00.948Z,7
2022-08-07T10:38:49.533Z,6.9
2022-08-07T10:40:02.838Z,7
2022-08-07T10:40:42.654Z,7.2
2022-08-07T10:41:51.537Z,7.1
2022-08-07T10:42:42.630Z,6.9
2022-08-07T10:43:42.656Z,6.8
2022-08-07T10:44:45.331Z,6.8
2022-08-07T10:45:44.964Z,6.8
2022-08-07T10:46:42.639Z,6.8
2022-08-07T10:47:53.906Z,7
2022-08-07T10:48:44.092Z,6.9
2022-08-07T10:49:45.289Z,6.8
2022-08-07T10:50:49.914Z,6.8
2022-08-07T10:52:01.590Z,6.9
2022-08-07T10:52:42.788Z,6.8
2022-08-07T10:53:44.709Z,6.8
2022-08-07T10:54:55.227Z,6.7
2022-08-07T10:55:42.661Z,6.8
2022-08-07T10:56:42.652Z,6.8
2022-08-07T10:57:42.651Z,6.7
2022-08-07T10:58:42.644Z,6.8
2022-08-07T10:59:47.463Z,6.7
2022-08-07T11:00:50.193Z,6.8
2022-08-07T11:01:51.597Z,6.9
2022-08-07T11:02:42.709Z,6.8
2022-08-07T11:03:52.491Z,6.8
2022-08-07T11:04:42.649Z,6.7
2022-08-07T11:05:50.410Z,6.5
2022-08-07T11:06:42.677Z,6.7
2022-08-07T11:08:00.530Z,6.6
2022-08-07T11:08:42.655Z,7.1
2022-08-07T11:10:09.158Z,7.2
2022-08-07T11:10:42.651Z,6.9
2022-08-07T11:11:42.756Z,6.9
2022-08-07T11:12:43.315Z,6.9
2022-08-07T11:14:45.253Z,6.8
2022-08-07T11:15:00.288Z,6.7
2022-08-07T11:15:42.646Z,6.7
2022-08-07T11:16:42.660Z,6.7
2022-08-07T11:17:45.760Z,6.7
2022-08-07T11:18:42.669Z,6.7
2022-08-07T11:19:42.671Z,6.6
2022-08-07T11:20:42.760Z,6.6
2022-08-07T11:21:43.122Z,6.6
2022-08-07T11:22:46.259Z,6.7
2022-08-07T11:23:42.663Z,6.7
2022-08-07T11:24:45.368Z,6.6
2022-08-07T11:25:49.916Z,6.8
2022-08-07T11:26:48.065Z,6.8
2022-08-07T11:28:01.537Z,6.7
2022-08-07T11:28:42.670Z,6.7
2022-08-07T11:29:48.350Z,6.8
2022-08-07T11:30:42.696Z,7.1
2022-08-07T11:31:42.664Z,6.8
2022-08-07T11:32:42.652Z,6.6
2022-08-07T11:33:59.212Z,6.7
2022-08-07T11:34:42.700Z,6.8
2022-08-07T11:35:59.560Z,6.9
2022-08-07T11:36:42.673Z,7
2022-08-07T11:38:09.906Z,6.7
2022-08-07T11:38:42.700Z,6.8
2022-08-07T11:40:00.771Z,6.6
2022-08-07T11:40:42.669Z,6.6
2022-08-07T11:42:01.613Z,6.6
2022-08-07T11:42:42.669Z,6.7
2022-08-07T11:44:10.931Z,6.7
2022-08-07T11:44:52.683Z,6.6
2022-08-07T11:45:53.461Z,6.7
2022-08-07T11:46:42.677Z,7.1
2022-08-07T11:47:56.717Z,7.1
2022-08-07T11:48:54.010Z,7.1
2022-08-07T11:50:25.304Z,6.8
2022-08-07T11:50:44.750Z,6.7
2022-08-07T11:51:46.579Z,6.5
2022-08-07T11:52:42.677Z,6.8
2022-08-07T11:53:43.347Z,6.9
2022-08-07T11:54:54.773Z,6.7
2022-08-07T11:56:25.101Z,6.8
2022-08-07T11:56:42.677Z,7.1
2022-08-07T11:58:00.373Z,7.1
2022-08-07T11:58:42.665Z,7.1
2022-08-07T12:00:10.990Z,6.8
2022-08-07T12:00:42.664Z,6.9
2022-08-07T12:01:59.910Z,7
2022-08-07T12:02:52.725Z,7.1
2022-08-07T12:03:46.034Z,6.9
2022-08-07T12:04:42.682Z,7
2022-08-07T12:05:48.818Z,7
2022-08-07T12:06:50.866Z,7
2022-08-07T12:07:42.906Z,6.9
2022-08-07T12:08:42.712Z,6.9
2022-08-07T12:09:42.682Z,6.8
2022-08-07T12:10:42.713Z,6.7
2022-08-07T12:11:43.193Z,6.6
2022-08-07T12:12:42.668Z,6.5
2022-08-07T12:13:47.631Z,6.6
2022-08-07T12:14:42.678Z,6.6
2022-08-07T12:16:05.619Z,6.5
2022-08-07T12:16:42.731Z,6.5
2022-08-07T12:17:55.973Z,6.6
2022-08-07T12:18:45.415Z,6.6
2022-08-07T12:20:02.808Z,6.5
2022-08-07T12:20:42.682Z,6.6
2022-08-07T12:22:35.683Z,6.6
2022-08-07T12:22:56.381Z,6.5
2022-08-07T12:24:06.705Z,6.6
2022-08-07T12:24:42.703Z,6.6
2022-08-07T12:26:06.231Z,6.6
2022-08-07T12:26:46.859Z,6.6
2022-08-07T12:28:09.768Z,6.6
2022-08-07T12:28:45.084Z,6.6
2022-08-07T12:29:42.701Z,6.5
2022-08-07T12:30:46.945Z,6.9
2022-08-07T12:31:52.985Z,6.9
2022-08-07T12:32:42.668Z,7
2022-08-07T12:33:56.549Z,6.9
2022-08-07T12:34:49.201Z,6.7
2022-08-07T12:35:42.677Z,6.6
2022-08-07T12:36:42.708Z,6.6
2022-08-07T12:38:10.034Z,6.6
2022-08-07T12:38:47.237Z,6.6
2022-08-07T12:39:51.073Z,6.7
2022-08-07T12:40:47.696Z,6.7
2022-08-07T12:41:51.522Z,6.8
2022-08-07T12:42:55.201Z,6.7
2022-08-07T12:44:04.107Z,6.7
2022-08-07T12:44:43.046Z,6.7
2022-08-07T12:45:42.700Z,6.6
2022-08-07T12:46:42.695Z,6.6
2022-08-07T12:47:42.680Z,6.6
2022-08-07T12:48:52.797Z,6.7
2022-08-07T12:50:49.443Z,6.5
2022-08-07T12:51:51.470Z,6.4
2022-08-07T12:52:46.298Z,6.6
2022-08-07T12:54:03.304Z,6.7
2022-08-07T12:54:38.922Z,6.6
2022-08-07T12:56:02.461Z,6.6
2022-08-07T12:56:42.694Z,6.6
2022-08-07T12:58:01.074Z,6.7
2022-08-07T12:58:43.892Z,6.9
2022-08-07T12:59:55.443Z,6.7
2022-08-07T13:00:50.223Z,6.8
2022-08-07T13:01:42.744Z,6.7
2022-08-07T13:02:42.691Z,6.8
2022-08-07T13:04:02.623Z,6.7
2022-08-07T13:04:48.987Z,6.6
2022-08-07T13:06:03.627Z,6.6
2022-08-07T13:07:00.127Z,6.7
2022-08-07T13:08:14.624Z,6.6
2022-08-07T13:08:42.695Z,6.6
2022-08-07T13:10:17.751Z,6.7
2022-08-07T13:10:51.806Z,6.7
2022-08-07T13:12:02.005Z,6.6
2022-08-07T13:12:42.714Z,6.6
2022-08-07T13:13:46.635Z,6.7
2022-08-07T13:14:46.778Z,6.8
2022-08-07T13:15:42.706Z,7
2022-08-07T13:16:42.692Z,6.8
2022-08-07T13:17:42.848Z,6.8
2022-08-07T13:18:42.698Z,6.9
2022-08-07T13:19:50.775Z,6.8
2022-08-07T13:20:42.691Z,6.9
2022-08-07T13:21:50.539Z,6.7
2022-08-07T13:22:42.696Z,6.7
2022-08-07T13:24:04.160Z,6.5
2022-08-07T13:24:52.260Z,6.7
2022-08-07T13:25:42.689Z,6.6
2022-08-07T13:26:46.052Z,6.5
2022-08-07T13:28:14.551Z,6.7
2022-08-07T13:28:42.698Z,6.6
2022-08-07T13:29:46.973Z,6.7
2022-08-07T13:30:43.863Z,6.6
2022-08-07T13:31:55.050Z,6.8
2022-08-07T13:32:42.703Z,6.8
2022-08-07T13:34:30.353Z,6.8
2022-08-07T13:34:44.706Z,6.8
2022-08-07T13:36:00.705Z,6.6
2022-08-07T13:36:42.713Z,6.5
2022-08-07T13:37:42.732Z,6.5
2022-08-07T13:38:42.715Z,6.6
2022-08-07T13:40:33.147Z,6.6
2022-08-07T13:40:43.189Z,6.7
2022-08-07T13:41:42.738Z,6.6
2022-08-07T13:42:42.718Z,6.6
2022-08-07T13:43:42.734Z,6.6
2022-08-07T13:44:42.735Z,6.6
2022-08-07T13:46:11.069Z,6.6
2022-08-07T13:46:48.994Z,6.7
2022-08-07T13:48:08.105Z,6.7
2022-08-07T13:48:42.726Z,6.5
2022-08-07T13:50:34.933Z,6.6
2022-08-07T13:50:44.942Z,6.6
2022-08-07T13:52:23.076Z,6.6
2022-08-07T13:52:43.103Z,6.5
2022-08-07T13:53:59.339Z,6.5
2022-08-07T13:54:42.823Z,6.5
2022-08-07T13:55:54.248Z,6.6